Ames, South Dakota
Current Conditions -  °F | °C
As of 10:53 AM on Friday 24 Oct 2014 (Local Time) from KPIR Reporting Station
Clear Clear  
Wind Chill: 55°   Ceiling: Unl
Heat Index: 55°   Visibility: 10mi
Dew Point: 35°   Wind: 7mph
Humidity: 47%   Direction: 270°W
Pressure: 29.92"   Gusts: NA
Location:  44.3693°N, 100.04°W
Report Text: KPIR 241553Z AUTO 27006KT 10SM CLR 13/02 A2992 RMK AO2 SLP134 T01280017
Loading
Personal Weather Stations






























Interactive Weather Map
Tropical Storm Tracking
New forecast layout! Learn more

10-Day Weather Forecast

Advertisements
Track Severe Weather on mobile